sensor_id;sensor_type;location;lat;lon;timestamp;P1;durP1;ratioP1;P2;durP2;ratioP2
43891;SDS011;29555;45.350;5.578;2024-01-30T00:02:15;24.60;;;14.60;;
43891;SDS011;29555;45.350;5.578;2024-01-30T00:04:41;21.33;;;14.65;;
43891;SDS011;29555;45.350;5.578;2024-01-30T00:07:06;25.77;;;14.25;;
43891;SDS011;29555;45.350;5.578;2024-01-30T00:09:32;18.48;;;13.57;;
43891;SDS011;29555;45.350;5.578;2024-01-30T00:11:58;24.73;;;14.60;;
43891;SDS011;29555;45.350;5.578;2024-01-30T00:14:23;26.70;;;14.63;;
43891;SDS011;29555;45.350;5.578;2024-01-30T00:16:48;25.42;;;15.23;;
43891;SDS011;29555;45.350;5.578;2024-01-30T00:19:14;24.27;;;15.20;;
43891;SDS011;29555;45.350;5.578;2024-01-30T00:21:39;20.80;;;14.65;;
43891;SDS011;29555;45.350;5.578;2024-01-30T00:24:05;35.58;;;16.02;;
43891;SDS011;29555;45.350;5.578;2024-01-30T00:26:30;20.65;;;14.90;;
43891;SDS011;29555;45.350;5.578;2024-01-30T00:28:56;29.70;;;15.82;;
43891;SDS011;29555;45.350;5.578;2024-01-30T00:31:21;24.40;;;14.32;;
43891;SDS011;29555;45.350;5.578;2024-01-30T00:33:47;24.65;;;14.68;;
43891;SDS011;29555;45.350;5.578;2024-01-30T00:36:12;33.13;;;17.27;;
43891;SDS011;29555;45.350;5.578;2024-01-30T00:38:37;47.38;;;22.73;;
43891;SDS011;29555;45.350;5.578;2024-01-30T00:41:03;64.95;;;26.77;;
43891;SDS011;29555;45.350;5.578;2024-01-30T00:43:28;80.25;;;41.97;;
43891;SDS011;29555;45.350;5.578;2024-01-30T00:45:54;98.05;;;49.35;;
43891;SDS011;29555;45.350;5.578;2024-01-30T00:48:20;60.47;;;31.05;;
43891;SDS011;29555;45.350;5.578;2024-01-30T00:50:45;42.95;;;24.80;;
43891;SDS011;29555;45.350;5.578;2024-01-30T00:53:11;48.45;;;25.50;;
43891;SDS011;29555;45.350;5.578;2024-01-30T00:55:36;69.10;;;34.47;;
43891;SDS011;29555;45.350;5.578;2024-01-30T00:58:02;62.75;;;32.38;;
43891;SDS011;29555;45.350;5.578;2024-01-30T01:00:28;56.85;;;27.38;;
43891;SDS011;29555;45.350;5.578;2024-01-30T01:02:57;57.05;;;34.88;;
43891;SDS011;29555;45.350;5.578;2024-01-30T01:05:23;48.95;;;26.17;;
43891;SDS011;29555;45.350;5.578;2024-01-30T01:07:48;38.80;;;25.15;;
43891;SDS011;29555;45.350;5.578;2024-01-30T01:10:14;50.92;;;28.23;;
43891;SDS011;29555;45.350;5.578;2024-01-30T01:12:41;45.30;;;27.23;;
43891;SDS011;29555;45.350;5.578;2024-01-30T01:15:07;42.47;;;25.40;;
43891;SDS011;29555;45.350;5.578;2024-01-30T01:17:34;69.03;;;36.75;;
43891;SDS011;29555;45.350;5.578;2024-01-30T01:20:00;88.68;;;41.45;;
43891;SDS011;29555;45.350;5.578;2024-01-30T01:22:27;62.33;;;35.85;;
43891;SDS011;29555;45.350;5.578;2024-01-30T01:24:52;167.30;;;75.95;;
43891;SDS011;29555;45.350;5.578;2024-01-30T01:27:18;155.40;;;67.32;;
43891;SDS011;29555;45.350;5.578;2024-01-30T01:29:43;129.57;;;59.47;;
43891;SDS011;29555;45.350;5.578;2024-01-30T01:32:08;218.57;;;86.00;;
43891;SDS011;29555;45.350;5.578;2024-01-30T01:34:34;179.77;;;71.03;;
43891;SDS011;29555;45.350;5.578;2024-01-30T01:36:59;169.80;;;65.05;;
43891;SDS011;29555;45.350;5.578;2024-01-30T01:39:25;132.98;;;54.83;;
43891;SDS011;29555;45.350;5.578;2024-01-30T01:41:50;96.97;;;42.22;;
43891;SDS011;29555;45.350;5.578;2024-01-30T01:44:17;52.78;;;30.05;;
43891;SDS011;29555;45.350;5.578;2024-01-30T01:46:43;53.95;;;27.65;;
43891;SDS011;29555;45.350;5.578;2024-01-30T01:49:08;34.15;;;21.90;;
43891;SDS011;29555;45.350;5.578;2024-01-30T01:51:35;49.20;;;25.77;;
43891;SDS011;29555;45.350;5.578;2024-01-30T01:54:04;47.50;;;23.83;;
43891;SDS011;29555;45.350;5.578;2024-01-30T01:56:30;32.92;;;20.15;;
43891;SDS011;29555;45.350;5.578;2024-01-30T01:58:59;28.42;;;19.60;;
43891;SDS011;29555;45.350;5.578;2024-01-30T02:01:25;30.02;;;17.10;;
43891;SDS011;29555;45.350;5.578;2024-01-30T02:03:52;28.90;;;18.48;;
43891;SDS011;29555;45.350;5.578;2024-01-30T02:06:17;30.27;;;18.83;;
43891;SDS011;29555;45.350;5.578;2024-01-30T02:08:43;30.60;;;18.55;;
43891;SDS011;29555;45.350;5.578;2024-01-30T02:11:09;27.23;;;17.60;;
43891;SDS011;29555;45.350;5.578;2024-01-30T02:13:35;30.13;;;17.58;;
43891;SDS011;29555;45.350;5.578;2024-01-30T02:16:01;32.30;;;18.63;;
43891;SDS011;29555;45.350;5.578;2024-01-30T02:18:26;31.08;;;16.65;;
43891;SDS011;29555;45.350;5.578;2024-01-30T02:20:53;23.38;;;15.60;;
43891;SDS011;29555;45.350;5.578;2024-01-30T02:23:19;34.83;;;18.42;;
43891;SDS011;29555;45.350;5.578;2024-01-30T02:25:45;28.88;;;18.95;;
43891;SDS011;29555;45.350;5.578;2024-01-30T02:28:14;29.83;;;16.95;;
43891;SDS011;29555;45.350;5.578;2024-01-30T02:30:40;31.38;;;17.40;;
43891;SDS011;29555;45.350;5.578;2024-01-30T02:33:05;25.10;;;16.80;;
43891;SDS011;29555;45.350;5.578;2024-01-30T02:35:31;20.23;;;15.25;;
43891;SDS011;29555;45.350;5.578;2024-01-30T02:37:57;27.85;;;15.95;;
43891;SDS011;29555;45.350;5.578;2024-01-30T02:40:22;38.55;;;21.80;;
43891;SDS011;29555;45.350;5.578;2024-01-30T02:42:47;23.23;;;16.23;;
43891;SDS011;29555;45.350;5.578;2024-01-30T02:45:13;29.88;;;16.83;;
43891;SDS011;29555;45.350;5.578;2024-01-30T02:47:39;28.73;;;17.27;;
43891;SDS011;29555;45.350;5.578;2024-01-30T02:50:05;21.73;;;15.68;;
43891;SDS011;29555;45.350;5.578;2024-01-30T02:52:30;33.13;;;17.35;;
43891;SDS011;29555;45.350;5.578;2024-01-30T02:54:56;26.20;;;16.60;;
43891;SDS011;29555;45.350;5.578;2024-01-30T02:57:21;24.25;;;16.27;;
43891;SDS011;29555;45.350;5.578;2024-01-30T02:59:47;28.17;;;16.30;;
43891;SDS011;29555;45.350;5.578;2024-01-30T03:02:12;24.05;;;15.45;;
43891;SDS011;29555;45.350;5.578;2024-01-30T03:04:37;22.10;;;16.65;;
43891;SDS011;29555;45.350;5.578;2024-01-30T03:07:06;20.33;;;14.57;;
43891;SDS011;29555;45.350;5.578;2024-01-30T03:09:31;31.77;;;16.85;;
43891;SDS011;29555;45.350;5.578;2024-01-30T03:11:56;28.08;;;17.10;;
43891;SDS011;29555;45.350;5.578;2024-01-30T03:14:22;26.35;;;17.20;;
43891;SDS011;29555;45.350;5.578;2024-01-30T03:16:47;33.25;;;19.45;;
43891;SDS011;29555;45.350;5.578;2024-01-30T03:19:12;31.13;;;18.02;;
43891;SDS011;29555;45.350;5.578;2024-01-30T03:21:38;33.10;;;17.10;;
43891;SDS011;29555;45.350;5.578;2024-01-30T03:24:03;34.50;;;18.38;;
43891;SDS011;29555;45.350;5.578;2024-01-30T03:26:29;27.60;;;17.48;;
43891;SDS011;29555;45.350;5.578;2024-01-30T03:28:54;25.88;;;16.60;;
43891;SDS011;29555;45.350;5.578;2024-01-30T03:31:20;31.58;;;16.45;;
43891;SDS011;29555;45.350;5.578;2024-01-30T03:33:45;30.55;;;17.58;;
43891;SDS011;29555;45.350;5.578;2024-01-30T03:36:10;27.83;;;17.70;;
43891;SDS011;29555;45.350;5.578;2024-01-30T03:38:36;22.17;;;16.17;;
43891;SDS011;29555;45.350;5.578;2024-01-30T03:41:01;30.08;;;18.73;;
43891;SDS011;29555;45.350;5.578;2024-01-30T03:43:26;29.63;;;19.92;;
43891;SDS011;29555;45.350;5.578;2024-01-30T03:45:52;22.05;;;16.13;;
43891;SDS011;29555;45.350;5.578;2024-01-30T03:48:18;27.30;;;17.98;;
43891;SDS011;29555;45.350;5.578;2024-01-30T03:50:44;26.42;;;17.30;;
43891;SDS011;29555;45.350;5.578;2024-01-30T03:53:09;28.02;;;16.40;;
43891;SDS011;29555;45.350;5.578;2024-01-30T03:55:34;27.70;;;16.77;;
43891;SDS011;29555;45.350;5.578;2024-01-30T03:58:00;23.25;;;16.10;;
43891;SDS011;29555;45.350;5.578;2024-01-30T04:00:25;21.25;;;15.50;;
43891;SDS011;29555;45.350;5.578;2024-01-30T04:02:51;28.45;;;15.95;;
43891;SDS011;29555;45.350;5.578;2024-01-30T04:05:16;24.52;;;16.33;;
43891;SDS011;29555;45.350;5.578;2024-01-30T04:07:42;25.40;;;16.33;;
43891;SDS011;29555;45.350;5.578;2024-01-30T04:10:07;30.35;;;14.60;;
43891;SDS011;29555;45.350;5.578;2024-01-30T04:12:34;30.42;;;19.00;;
43891;SDS011;29555;45.350;5.578;2024-01-30T04:15:00;27.98;;;16.58;;
43891;SDS011;29555;45.350;5.578;2024-01-30T04:17:26;29.33;;;18.27;;
43891;SDS011;29555;45.350;5.578;2024-01-30T04:19:53;23.27;;;15.95;;
43891;SDS011;29555;45.350;5.578;2024-01-30T04:22:18;27.15;;;18.85;;
43891;SDS011;29555;45.350;5.578;2024-01-30T04:24:44;26.83;;;17.40;;
43891;SDS011;29555;45.350;5.578;2024-01-30T04:27:09;27.75;;;16.92;;
43891;SDS011;29555;45.350;5.578;2024-01-30T04:29:34;35.20;;;18.20;;
43891;SDS011;29555;45.350;5.578;2024-01-30T04:32:00;29.30;;;18.52;;
43891;SDS011;29555;45.350;5.578;2024-01-30T04:34:25;26.52;;;16.08;;
43891;SDS011;29555;45.350;5.578;2024-01-30T04:36:50;24.42;;;16.48;;
43891;SDS011;29555;45.350;5.578;2024-01-30T04:39:16;20.17;;;15.85;;
43891;SDS011;29555;45.350;5.578;2024-01-30T04:41:42;34.08;;;18.42;;
43891;SDS011;29555;45.350;5.578;2024-01-30T04:44:07;26.42;;;15.90;;
43891;SDS011;29555;45.350;5.578;2024-01-30T04:46:32;26.55;;;16.40;;
43891;SDS011;29555;45.350;5.578;2024-01-30T04:48:59;31.52;;;16.85;;
43891;SDS011;29555;45.350;5.578;2024-01-30T04:51:25;25.95;;;15.57;;
43891;SDS011;29555;45.350;5.578;2024-01-30T04:53:50;26.77;;;15.88;;
43891;SDS011;29555;45.350;5.578;2024-01-30T04:56:15;22.25;;;16.30;;
43891;SDS011;29555;45.350;5.578;2024-01-30T04:58:41;25.98;;;15.40;;
43891;SDS011;29555;45.350;5.578;2024-01-30T05:01:06;30.77;;;16.17;;
43891;SDS011;29555;45.350;5.578;2024-01-30T05:03:35;21.25;;;14.57;;
43891;SDS011;29555;45.350;5.578;2024-01-30T05:06:00;29.52;;;16.83;;
43891;SDS011;29555;45.350;5.578;2024-01-30T05:08:26;27.50;;;15.40;;
43891;SDS011;29555;45.350;5.578;2024-01-30T05:10:51;28.17;;;15.63;;
43891;SDS011;29555;45.350;5.578;2024-01-30T05:13:16;24.48;;;15.13;;
43891;SDS011;29555;45.350;5.578;2024-01-30T05:15:42;24.30;;;15.43;;
43891;SDS011;29555;45.350;5.578;2024-01-30T05:18:07;26.25;;;15.05;;
43891;SDS011;29555;45.350;5.578;2024-01-30T05:20:33;28.67;;;16.20;;
43891;SDS011;29555;45.350;5.578;2024-01-30T05:22:58;26.17;;;15.88;;
43891;SDS011;29555;45.350;5.578;2024-01-30T05:25:23;29.05;;;16.42;;
43891;SDS011;29555;45.350;5.578;2024-01-30T05:27:49;22.08;;;16.45;;
43891;SDS011;29555;45.350;5.578;2024-01-30T05:30:14;24.08;;;15.27;;
43891;SDS011;29555;45.350;5.578;2024-01-30T05:32:40;22.10;;;14.55;;
43891;SDS011;29555;45.350;5.578;2024-01-30T05:35:05;21.58;;;14.65;;
43891;SDS011;29555;45.350;5.578;2024-01-30T05:37:33;27.10;;;15.90;;
43891;SDS011;29555;45.350;5.578;2024-01-30T05:39:58;25.33;;;15.98;;
43891;SDS011;29555;45.350;5.578;2024-01-30T05:42:23;28.95;;;16.10;;
43891;SDS011;29555;45.350;5.578;2024-01-30T05:44:49;24.70;;;14.88;;
43891;SDS011;29555;45.350;5.578;2024-01-30T05:47:15;26.13;;;16.48;;
43891;SDS011;29555;45.350;5.578;2024-01-30T05:49:40;23.98;;;16.45;;
43891;SDS011;29555;45.350;5.578;2024-01-30T05:52:06;27.30;;;15.90;;
43891;SDS011;29555;45.350;5.578;2024-01-30T05:54:32;26.25;;;16.95;;
43891;SDS011;29555;45.350;5.578;2024-01-30T05:56:57;19.80;;;15.38;;
43891;SDS011;29555;45.350;5.578;2024-01-30T05:59:23;21.10;;;14.75;;
43891;SDS011;29555;45.350;5.578;2024-01-30T06:01:48;29.50;;;16.50;;
43891;SDS011;29555;45.350;5.578;2024-01-30T06:04:14;23.90;;;15.82;;
43891;SDS011;29555;45.350;5.578;2024-01-30T06:06:39;26.58;;;15.43;;
43891;SDS011;29555;45.350;5.578;2024-01-30T06:09:05;25.10;;;15.45;;
43891;SDS011;29555;45.350;5.578;2024-01-30T06:11:31;29.88;;;15.05;;
43891;SDS011;29555;45.350;5.578;2024-01-30T06:13:56;21.92;;;13.57;;
43891;SDS011;29555;45.350;5.578;2024-01-30T06:16:21;24.48;;;13.60;;
43891;SDS011;29555;45.350;5.578;2024-01-30T06:18:47;26.25;;;14.40;;
43891;SDS011;29555;45.350;5.578;2024-01-30T06:21:13;22.95;;;15.65;;
43891;SDS011;29555;45.350;5.578;2024-01-30T06:23:39;21.15;;;13.57;;
43891;SDS011;29555;45.350;5.578;2024-01-30T06:26:04;20.20;;;12.80;;
43891;SDS011;29555;45.350;5.578;2024-01-30T06:28:31;23.45;;;14.65;;
43891;SDS011;29555;45.350;5.578;2024-01-30T06:30:56;19.25;;;12.95;;
43891;SDS011;29555;45.350;5.578;2024-01-30T06:33:22;24.17;;;14.10;;
43891;SDS011;29555;45.350;5.578;2024-01-30T06:35:47;21.02;;;15.30;;
43891;SDS011;29555;45.350;5.578;2024-01-30T06:38:13;31.65;;;15.90;;
43891;SDS011;29555;45.350;5.578;2024-01-30T06:40:40;23.73;;;15.00;;
43891;SDS011;29555;45.350;5.578;2024-01-30T06:43:06;22.20;;;15.18;;
43891;SDS011;29555;45.350;5.578;2024-01-30T06:45:32;30.02;;;17.45;;
43891;SDS011;29555;45.350;5.578;2024-01-30T06:47:59;22.35;;;13.82;;
43891;SDS011;29555;45.350;5.578;2024-01-30T06:50:25;21.38;;;14.55;;
43891;SDS011;29555;45.350;5.578;2024-01-30T06:52:50;20.20;;;14.88;;
43891;SDS011;29555;45.350;5.578;2024-01-30T06:55:16;25.23;;;15.00;;
43891;SDS011;29555;45.350;5.578;2024-01-30T06:57:41;23.75;;;15.45;;
43891;SDS011;29555;45.350;5.578;2024-01-30T07:00:07;26.08;;;14.73;;
43891;SDS011;29555;45.350;5.578;2024-01-30T07:02:32;26.20;;;13.98;;
43891;SDS011;29555;45.350;5.578;2024-01-30T07:04:58;20.38;;;14.85;;
43891;SDS011;29555;45.350;5.578;2024-01-30T07:07:23;21.15;;;12.82;;
43891;SDS011;29555;45.350;5.578;2024-01-30T07:09:49;21.63;;;14.45;;
43891;SDS011;29555;45.350;5.578;2024-01-30T07:12:17;23.40;;;15.38;;
43891;SDS011;29555;45.350;5.578;2024-01-30T07:14:43;26.83;;;14.27;;
43891;SDS011;29555;45.350;5.578;2024-01-30T07:17:08;20.90;;;13.85;;
43891;SDS011;29555;45.350;5.578;2024-01-30T07:19:34;30.23;;;15.80;;
43891;SDS011;29555;45.350;5.578;2024-01-30T07:22:00;24.52;;;15.07;;
43891;SDS011;29555;45.350;5.578;2024-01-30T07:24:26;30.75;;;15.15;;
43891;SDS011;29555;45.350;5.578;2024-01-30T07:26:52;28.48;;;15.48;;
43891;SDS011;29555;45.350;5.578;2024-01-30T07:29:17;28.17;;;15.40;;
43891;SDS011;29555;45.350;5.578;2024-01-30T07:31:43;25.27;;;14.00;;
43891;SDS011;29555;45.350;5.578;2024-01-30T07:34:08;28.10;;;15.57;;
43891;SDS011;29555;45.350;5.578;2024-01-30T07:36:34;23.55;;;14.50;;
43891;SDS011;29555;45.350;5.578;2024-01-30T07:38:59;17.20;;;13.55;;
43891;SDS011;29555;45.350;5.578;2024-01-30T07:41:25;24.10;;;16.95;;
43891;SDS011;29555;45.350;5.578;2024-01-30T07:43:50;29.70;;;16.13;;
43891;SDS011;29555;45.350;5.578;2024-01-30T07:46:15;22.55;;;15.38;;
43891;SDS011;29555;45.350;5.578;2024-01-30T07:48:41;16.58;;;10.70;;
43891;SDS011;29555;45.350;5.578;2024-01-30T07:51:06;25.05;;;12.93;;
43891;SDS011;29555;45.350;5.578;2024-01-30T07:53:32;27.75;;;16.00;;
43891;SDS011;29555;45.350;5.578;2024-01-30T07:55:57;24.25;;;17.73;;
43891;SDS011;29555;45.350;5.578;2024-01-30T07:58:22;29.33;;;17.33;;
43891;SDS011;29555;45.350;5.578;2024-01-30T08:00:48;30.48;;;16.75;;
43891;SDS011;29555;45.350;5.578;2024-01-30T08:03:14;23.00;;;14.48;;
43891;SDS011;29555;45.350;5.578;2024-01-30T08:05:41;24.05;;;14.85;;
43891;SDS011;29555;45.350;5.578;2024-01-30T08:08:07;29.77;;;13.68;;
43891;SDS011;29555;45.350;5.578;2024-01-30T08:10:32;26.08;;;13.48;;
43891;SDS011;29555;45.350;5.578;2024-01-30T08:12:57;29.45;;;14.25;;
43891;SDS011;29555;45.350;5.578;2024-01-30T08:15:23;28.40;;;13.63;;
43891;SDS011;29555;45.350;5.578;2024-01-30T08:17:48;46.72;;;25.90;;
43891;SDS011;29555;45.350;5.578;2024-01-30T08:20:14;69.95;;;33.65;;
43891;SDS011;29555;45.350;5.578;2024-01-30T08:22:39;47.58;;;25.08;;
43891;SDS011;29555;45.350;5.578;2024-01-30T08:25:07;34.28;;;18.85;;
43891;SDS011;29555;45.350;5.578;2024-01-30T08:27:34;234.35;;;78.90;;
43891;SDS011;29555;45.350;5.578;2024-01-30T08:30:04;176.55;;;61.45;;
43891;SDS011;29555;45.350;5.578;2024-01-30T08:32:31;50.85;;;29.27;;
43891;SDS011;29555;45.350;5.578;2024-01-30T08:34:56;33.08;;;22.17;;
43891;SDS011;29555;45.350;5.578;2024-01-30T08:37:22;42.40;;;24.58;;
43891;SDS011;29555;45.350;5.578;2024-01-30T08:39:47;25.95;;;15.32;;
43891;SDS011;29555;45.350;5.578;2024-01-30T08:42:13;26.23;;;17.40;;
43891;SDS011;29555;45.350;5.578;2024-01-30T08:44:41;53.53;;;28.30;;
43891;SDS011;29555;45.350;5.578;2024-01-30T08:47:06;40.63;;;22.88;;
43891;SDS011;29555;45.350;5.578;2024-01-30T08:49:31;35.67;;;22.42;;
43891;SDS011;29555;45.350;5.578;2024-01-30T08:51:57;63.40;;;34.30;;
43891;SDS011;29555;45.350;5.578;2024-01-30T08:54:23;35.80;;;21.63;;
43891;SDS011;29555;45.350;5.578;2024-01-30T08:56:49;27.00;;;17.20;;
43891;SDS011;29555;45.350;5.578;2024-01-30T08:59:14;30.90;;;16.70;;
43891;SDS011;29555;45.350;5.578;2024-01-30T09:01:40;25.75;;;15.10;;
43891;SDS011;29555;45.350;5.578;2024-01-30T09:04:05;38.03;;;22.63;;
43891;SDS011;29555;45.350;5.578;2024-01-30T09:06:30;40.35;;;23.75;;
43891;SDS011;29555;45.350;5.578;2024-01-30T09:08:56;26.05;;;16.98;;
43891;SDS011;29555;45.350;5.578;2024-01-30T09:11:23;22.52;;;14.13;;
43891;SDS011;29555;45.350;5.578;2024-01-30T09:13:48;22.38;;;14.27;;
43891;SDS011;29555;45.350;5.578;2024-01-30T09:16:14;23.15;;;14.35;;
43891;SDS011;29555;45.350;5.578;2024-01-30T09:18:41;14.88;;;12.57;;
43891;SDS011;29555;45.350;5.578;2024-01-30T09:21:06;22.95;;;15.57;;
43891;SDS011;29555;45.350;5.578;2024-01-30T09:23:32;24.25;;;16.85;;
43891;SDS011;29555;45.350;5.578;2024-01-30T09:25:58;20.02;;;13.77;;
43891;SDS011;29555;45.350;5.578;2024-01-30T09:28:25;29.77;;;17.95;;
43891;SDS011;29555;45.350;5.578;2024-01-30T09:30:51;23.25;;;13.70;;
43891;SDS011;29555;45.350;5.578;2024-01-30T09:33:17;29.17;;;19.23;;
43891;SDS011;29555;45.350;5.578;2024-01-30T09:35:42;35.17;;;17.75;;
43891;SDS011;29555;45.350;5.578;2024-01-30T09:38:07;22.90;;;14.93;;
43891;SDS011;29555;45.350;5.578;2024-01-30T09:40:33;37.75;;;24.48;;
43891;SDS011;29555;45.350;5.578;2024-01-30T09:42:58;26.52;;;16.25;;
43891;SDS011;29555;45.350;5.578;2024-01-30T09:45:25;31.10;;;16.13;;
43891;SDS011;29555;45.350;5.578;2024-01-30T09:47:51;25.20;;;14.75;;
43891;SDS011;29555;45.350;5.578;2024-01-30T09:50:19;29.45;;;20.73;;
43891;SDS011;29555;45.350;5.578;2024-01-30T09:52:45;27.88;;;16.60;;
43891;SDS011;29555;45.350;5.578;2024-01-30T09:55:11;37.38;;;19.38;;
43891;SDS011;29555;45.350;5.578;2024-01-30T09:57:37;32.95;;;19.52;;
43891;SDS011;29555;45.350;5.578;2024-01-30T10:00:03;35.88;;;23.23;;
43891;SDS011;29555;45.350;5.578;2024-01-30T10:02:31;25.23;;;18.05;;
43891;SDS011;29555;45.350;5.578;2024-01-30T10:04:57;19.48;;;14.25;;
43891;SDS011;29555;45.350;5.578;2024-01-30T10:07:22;23.67;;;14.30;;
43891;SDS011;29555;45.350;5.578;2024-01-30T10:09:48;27.77;;;15.48;;
43891;SDS011;29555;45.350;5.578;2024-01-30T10:12:14;25.88;;;14.57;;
43891;SDS011;29555;45.350;5.578;2024-01-30T10:14:40;22.40;;;14.48;;
43891;SDS011;29555;45.350;5.578;2024-01-30T10:17:07;22.30;;;16.00;;
43891;SDS011;29555;45.350;5.578;2024-01-30T10:19:34;27.58;;;17.48;;
43891;SDS011;29555;45.350;5.578;2024-01-30T10:22:00;21.30;;;13.30;;
43891;SDS011;29555;45.350;5.578;2024-01-30T10:24:26;23.42;;;12.52;;
43891;SDS011;29555;45.350;5.578;2024-01-30T10:26:52;24.88;;;13.95;;
43891;SDS011;29555;45.350;5.578;2024-01-30T10:29:18;22.65;;;15.13;;
43891;SDS011;29555;45.350;5.578;2024-01-30T10:31:43;24.25;;;16.25;;
43891;SDS011;29555;45.350;5.578;2024-01-30T10:34:09;24.90;;;14.75;;
43891;SDS011;29555;45.350;5.578;2024-01-30T10:36:37;21.23;;;13.52;;
43891;SDS011;29555;45.350;5.578;2024-01-30T10:39:06;19.83;;;12.82;;
43891;SDS011;29555;45.350;5.578;2024-01-30T10:41:32;23.27;;;13.98;;
43891;SDS011;29555;45.350;5.578;2024-01-30T10:44:08;19.33;;;11.65;;
43891;SDS011;29555;45.350;5.578;2024-01-30T10:46:34;19.42;;;12.07;;
43891;SDS011;29555;45.350;5.578;2024-01-30T10:49:00;22.33;;;14.07;;
43891;SDS011;29555;45.350;5.578;2024-01-30T10:51:26;23.15;;;15.05;;
43891;SDS011;29555;45.350;5.578;2024-01-30T10:53:53;18.23;;;13.98;;
43891;SDS011;29555;45.350;5.578;2024-01-30T10:56:21;21.08;;;15.55;;
43891;SDS011;29555;45.350;5.578;2024-01-30T10:58:48;19.13;;;14.05;;
43891;SDS011;29555;45.350;5.578;2024-01-30T11:01:16;26.35;;;14.13;;
43891;SDS011;29555;45.350;5.578;2024-01-30T11:03:41;28.55;;;16.63;;
43891;SDS011;29555;45.350;5.578;2024-01-30T11:06:10;19.55;;;12.98;;
43891;SDS011;29555;45.350;5.578;2024-01-30T11:08:36;26.38;;;12.60;;
43891;SDS011;29555;45.350;5.578;2024-01-30T11:11:02;16.45;;;11.18;;
43891;SDS011;29555;45.350;5.578;2024-01-30T11:13:33;19.17;;;10.23;;
43891;SDS011;29555;45.350;5.578;2024-01-30T11:16:00;10.30;;;7.65;;
43891;SDS011;29555;45.350;5.578;2024-01-30T11:18:29;13.40;;;8.73;;
43891;SDS011;29555;45.350;5.578;2024-01-30T11:20:58;13.45;;;8.23;;
43891;SDS011;29555;45.350;5.578;2024-01-30T11:23:27;13.43;;;7.68;;
43891;SDS011;29555;45.350;5.578;2024-01-30T11:25:53;16.98;;;9.50;;
43891;SDS011;29555;45.350;5.578;2024-01-30T11:28:19;16.63;;;10.05;;
43891;SDS011;29555;45.350;5.578;2024-01-30T11:30:46;14.85;;;9.32;;
43891;SDS011;29555;45.350;5.578;2024-01-30T11:33:13;14.40;;;8.93;;
43891;SDS011;29555;45.350;5.578;2024-01-30T11:35:40;15.68;;;9.13;;
43891;SDS011;29555;45.350;5.578;2024-01-30T11:38:06;21.02;;;10.27;;
43891;SDS011;29555;45.350;5.578;2024-01-30T11:40:33;14.40;;;9.18;;
43891;SDS011;29555;45.350;5.578;2024-01-30T11:43:00;12.60;;;9.88;;
43891;SDS011;29555;45.350;5.578;2024-01-30T11:45:29;11.40;;;8.05;;
43891;SDS011;29555;45.350;5.578;2024-01-30T11:47:56;13.57;;;9.73;;
43891;SDS011;29555;45.350;5.578;2024-01-30T11:50:22;14.82;;;8.13;;
43891;SDS011;29555;45.350;5.578;2024-01-30T11:52:48;13.93;;;9.90;;
43891;SDS011;29555;45.350;5.578;2024-01-30T11:55:14;13.95;;;8.95;;
43891;SDS011;29555;45.350;5.578;2024-01-30T11:57:40;15.50;;;9.70;;
43891;SDS011;29555;45.350;5.578;2024-01-30T12:00:06;12.57;;;8.07;;
43891;SDS011;29555;45.350;5.578;2024-01-30T12:05:07;11.57;;;8.80;;
43891;SDS011;29555;45.350;5.578;2024-01-30T12:07:33;15.45;;;9.85;;
43891;SDS011;29555;45.350;5.578;2024-01-30T12:09:59;14.80;;;10.00;;
43891;SDS011;29555;45.350;5.578;2024-01-30T12:12:25;16.30;;;10.10;;
43891;SDS011;29555;45.350;5.578;2024-01-30T12:14:51;15.07;;;8.43;;
43891;SDS011;29555;45.350;5.578;2024-01-30T12:17:29;13.05;;;10.15;;
43891;SDS011;29555;45.350;5.578;2024-01-30T12:20:02;13.85;;;9.38;;
43891;SDS011;29555;45.350;5.578;2024-01-30T12:22:33;12.35;;;9.70;;
43891;SDS011;29555;45.350;5.578;2024-01-30T12:25:08;13.98;;;10.48;;
43891;SDS011;29555;45.350;5.578;2024-01-30T12:27:35;16.00;;;9.65;;
43891;SDS011;29555;45.350;5.578;2024-01-30T12:30:04;13.75;;;9.55;;
43891;SDS011;29555;45.350;5.578;2024-01-30T12:32:52;13.57;;;8.37;;
43891;SDS011;29555;45.350;5.578;2024-01-30T12:35:18;14.50;;;9.10;;
43891;SDS011;29555;45.350;5.578;2024-01-30T12:37:45;11.75;;;8.55;;
43891;SDS011;29555;45.350;5.578;2024-01-30T12:40:11;21.45;;;8.10;;
43891;SDS011;29555;45.350;5.578;2024-01-30T12:42:39;17.15;;;8.73;;
43891;SDS011;29555;45.350;5.578;2024-01-30T12:45:07;12.32;;;8.70;;
43891;SDS011;29555;45.350;5.578;2024-01-30T12:47:32;11.95;;;9.77;;
43891;SDS011;29555;45.350;5.578;2024-01-30T12:49:58;13.18;;;7.90;;
43891;SDS011;29555;45.350;5.578;2024-01-30T12:52:23;13.05;;;8.65;;
43891;SDS011;29555;45.350;5.578;2024-01-30T12:54:49;14.43;;;8.55;;
43891;SDS011;29555;45.350;5.578;2024-01-30T12:57:15;13.15;;;8.30;;
43891;SDS011;29555;45.350;5.578;2024-01-30T12:59:41;15.95;;;9.93;;
43891;SDS011;29555;45.350;5.578;2024-01-30T13:02:08;14.15;;;9.60;;
43891;SDS011;29555;45.350;5.578;2024-01-30T13:04:34;14.30;;;9.13;;
43891;SDS011;29555;45.350;5.578;2024-01-30T13:06:59;13.18;;;9.02;;
43891;SDS011;29555;45.350;5.578;2024-01-30T13:09:25;19.52;;;8.93;;
43891;SDS011;29555;45.350;5.578;2024-01-30T13:11:51;17.00;;;9.25;;
43891;SDS011;29555;45.350;5.578;2024-01-30T13:14:17;14.38;;;9.15;;
43891;SDS011;29555;45.350;5.578;2024-01-30T13:16:43;13.00;;;7.45;;
43891;SDS011;29555;45.350;5.578;2024-01-30T13:19:08;13.70;;;9.57;;
43891;SDS011;29555;45.350;5.578;2024-01-30T13:21:33;22.05;;;11.43;;
43891;SDS011;29555;45.350;5.578;2024-01-30T13:23:59;15.38;;;10.02;;
43891;SDS011;29555;45.350;5.578;2024-01-30T13:26:24;12.93;;;8.70;;
43891;SDS011;29555;45.350;5.578;2024-01-30T13:28:50;12.32;;;8.45;;
43891;SDS011;29555;45.350;5.578;2024-01-30T13:31:16;15.23;;;9.30;;
43891;SDS011;29555;45.350;5.578;2024-01-30T13:33:41;14.93;;;8.15;;
43891;SDS011;29555;45.350;5.578;2024-01-30T13:36:07;15.57;;;9.15;;
43891;SDS011;29555;45.350;5.578;2024-01-30T13:38:33;16.30;;;8.13;;
43891;SDS011;29555;45.350;5.578;2024-01-30T13:40:59;14.57;;;7.30;;
43891;SDS011;29555;45.350;5.578;2024-01-30T13:43:25;17.33;;;10.18;;
43891;SDS011;29555;45.350;5.578;2024-01-30T13:45:50;9.65;;;6.97;;
43891;SDS011;29555;45.350;5.578;2024-01-30T13:48:16;10.85;;;7.80;;
43891;SDS011;29555;45.350;5.578;2024-01-30T13:50:41;14.52;;;7.78;;
43891;SDS011;29555;45.350;5.578;2024-01-30T13:53:07;9.93;;;7.25;;
43891;SDS011;29555;45.350;5.578;2024-01-30T13:55:33;14.00;;;8.85;;
43891;SDS011;29555;45.350;5.578;2024-01-30T13:57:58;20.58;;;11.43;;
43891;SDS011;29555;45.350;5.578;2024-01-30T14:00:24;9.95;;;7.85;;
43891;SDS011;29555;45.350;5.578;2024-01-30T14:02:51;14.20;;;8.23;;
43891;SDS011;29555;45.350;5.578;2024-01-30T14:05:16;10.45;;;7.97;;
43891;SDS011;29555;45.350;5.578;2024-01-30T14:07:42;12.98;;;7.85;;
43891;SDS011;29555;45.350;5.578;2024-01-30T14:10:09;19.15;;;7.57;;
43891;SDS011;29555;45.350;5.578;2024-01-30T14:12:36;13.48;;;9.07;;
43891;SDS011;29555;45.350;5.578;2024-01-30T14:15:01;87.20;;;33.88;;
43891;SDS011;29555;45.350;5.578;2024-01-30T14:17:27;27.67;;;14.82;;
43891;SDS011;29555;45.350;5.578;2024-01-30T14:19:52;16.23;;;8.25;;